Latest Weather Observations for Brisbane Airport

IDQ60801

Issued at 9:32 pm EST Monday 25 May 2015 (issued every 30 minutes, with the page automatically refreshed every 10 minutes)

About weather observations | Map of weather stations | Latest weather observations for QLD | Other Formats
Station Details ID: 040842 Name: BRISBANE AERO Lat: -27.39 Lon: 153.13 Height: 4.51 m
Data from the previous 72 hours. | See also: Recent months at Brisbane Airport
Date/Time
EST
Temp
°C
App
Temp
°C
Dew
Point
Rel
Hum
%
Delta-T
°C
Wind Press
QNH
hPa
Press
MSL
hPa
Rain
since 9 am
mm
Dir
 
Spd
km/h
Gust
km/h
Spd
kts
Gust
kts
25/09:30pm 15.5 14.4 11.8 78 2.0 S 9 11 5 6 1029.6 - 0.0
25/09:00pm 16.8 15.7 12.0 73 2.6 S 9 13 5 7 1029.5 1029.4 0.0
25/08:30pm 17.0 15.9 12.0 72 2.7 S 9 13 5 7 1029.4 - 0.0
25/08:00pm 16.9 16.4 12.5 75 2.4 S 7 11 4 6 1029.4 - 0.0
25/07:30pm 17.5 17.0 12.6 73 2.7 S 7 11 4 6 1029.1 - 0.0
25/07:00pm 18.1 17.6 12.7 70 3.0 SSE 7 9 4 5 1028.7 - 0.0
25/06:30pm 18.6 18.1 12.7 68 3.3 SSE 7 11 4 6 1028.6 - 0.0
25/06:00pm 18.9 18.1 12.8 67 3.4 SE 9 13 5 7 1028.4 1028.3 0.0
25/05:30pm 19.8 18.8 12.4 62 4.1 SE 9 17 5 9 1028.4 - 0.0
25/05:00pm 19.9 18.9 12.4 62 4.2 ESE 9 17 5 9 1028.6 - 0.0
25/04:30pm 20.3 18.5 12.0 59 4.6 SE 13 19 7 10 1028.5 - 0.0
25/04:00pm 20.8 19.0 12.2 58 4.8 ESE 13 20 7 11 1028.0 - 0.0
25/03:30pm 21.2 19.1 12.3 57 5.0 SE 15 26 8 14 1027.6 - 0.0
25/03:00pm 21.1 19.1 11.5 54 5.3 SE 13 28 7 15 1027.7 1027.6 0.0
25/02:30pm 21.1 18.6 12.4 57 4.9 ESE 17 28 9 15 1027.8 - 0.0
25/02:00pm 21.6 18.6 12.1 54 5.3 ESE 19 30 10 16 1027.8 - 0.0
25/01:30pm 21.8 19.4 12.6 56 5.2 ESE 17 26 9 14 1028.2 - 0.0
25/01:00pm 21.9 19.6 13.1 57 5.0 ESE 17 26 9 14 1028.4 - 0.0
25/12:30pm 21.8 18.9 12.2 54 5.4 ESE 19 28 10 15 1028.8 - 0.0
25/12:00pm 22.0 19.7 11.8 52 5.7 ESE 15 26 8 14 1029.3 1029.2 0.0
25/11:30am 22.1 20.5 12.7 55 5.4 SE 13 26 7 14 1029.8 - 0.0
25/11:00am 21.3 19.9 13.4 60 4.5 SE 13 19 7 10 1030.2 - 0.0
25/10:30am 21.1 20.1 13.4 61 4.4 SSE 11 20 6 11 1030.7 - 0.0
25/10:00am 20.3 18.9 13.4 64 3.9 S 13 19 7 10 1030.8 - 0.0
25/09:30am 19.7 18.1 12.9 65 3.8 S 13 19 7 10 1030.9 - 0.0
25/09:00am 18.5 16.8 12.3 67 3.4 S 13 19 7 10 1030.8 1030.7 0.0
25/08:30am 17.4 15.6 12.1 71 2.9 SSW 13 17 7 9 1030.4 - 0.0
25/08:00am 16.0 13.7 11.9 76 2.2 SSW 15 20 8 11 1030.0 - 0.0
25/07:30am 14.7 12.9 12.1 84 1.4 SSW 13 17 7 9 1030.0 - 0.0
25/07:00am 14.0 11.6 11.3 84 1.4 SSW 15 17 8 9 1030.1 - 0.0
25/06:30am 14.1 11.7 11.5 84 1.4 SSW 15 19 8 10 1030.0 - 0.0
25/05:30am 13.9 11.1 11.2 84 1.4 SSW 17 19 9 10 1029.6 - 0.0
25/05:00am 13.7 11.2 11.2 85 1.3 SSW 15 19 8 10 1029.5 - 0.0
25/04:30am 13.0 10.5 10.9 87 1.1 SSW 15 17 8 9 1029.4 - 0.0
25/04:00am 13.0 10.9 11.1 88 1.0 SSW 13 15 7 8 1029.3 - 0.0
25/03:30am 13.3 11.2 11.2 87 1.1 SSW 13 17 7 9 1029.3 - 0.0
25/03:00am 13.3 10.8 11.2 87 1.1 SSW 15 17 8 9 1029.5 1029.4 0.0
25/02:30am 13.5 11.4 11.2 86 1.2 SSW 13 17 7 9 1029.4 - 0.0
25/02:00am 13.7 11.6 11.2 85 1.3 SSW 13 17 7 9 1029.2 - 0.0
25/01:30am 14.6 12.6 11.4 81 1.7 SSW 13 17 7 9 1029.3 - 0.0
25/01:00am 15.7 13.6 11.2 74 2.4 S 13 17 7 9 1029.1 - 0.0
25/12:30am 15.6 13.5 11.1 74 2.4 SSW 13 15 7 8 1029.4 - 0.0
 
Date/Time
EST
Temp
°C
App
Temp
°C
Dew
Point
Rel
Hum
%
Delta-T
°C
Wind Press
QNH
hPa
Press
MSL
hPa
Rain
since 9 am
mm
Dir
 
Spd
km/h
Gust
km/h
Spd
kts
Gust
kts
24/11:30pm 14.2 12.6 11.4 83 1.5 SSW 11 15 6 8 1029.5 - 0.0
24/11:00pm 14.8 12.7 11.2 79 1.9 SSW 13 17 7 9 1030.0 - 0.0
24/10:30pm 16.7 14.6 11.1 69 3.0 SSW 13 19 7 10 1030.1 - 0.0
24/10:00pm 17.0 14.9 11.0 68 3.2 SSW 13 17 7 9 1030.2 - 0.0
24/09:30pm 16.8 14.7 11.0 68 3.1 S 13 15 7 8 1029.9 - 0.0
24/09:00pm 17.3 15.5 10.9 66 3.4 S 11 17 6 9 1029.7 1029.6 0.0
24/08:30pm 17.8 15.7 11.3 65 3.5 S 13 22 7 12 1029.8 - 0.0
24/08:00pm 18.4 15.9 11.2 63 3.9 S 15 26 8 14 1029.6 - 0.0
24/07:30pm 19.3 17.3 11.4 60 4.3 SSE 13 22 7 12 1029.3 - 0.0
24/07:00pm 19.5 17.5 11.4 59 4.4 SE 13 22 7 12 1029.0 - 0.0
24/06:30pm 19.5 18.1 12.1 62 4.1 SSE 11 17 6 9 1028.9 - 0.0
24/06:00pm 19.5 17.6 11.9 61 4.2 SSE 13 19 7 10 1028.7 1028.6 0.0
24/05:30pm 19.5 16.6 12.3 63 4.0 SE 19 32 10 17 1028.6 - 0.0
24/05:00pm 19.9 17.0 11.1 57 4.8 SE 17 30 9 16 1028.1 - 0.0
24/04:30pm 20.6 18.5 11.1 54 5.2 SE 13 22 7 12 1027.6 - 0.0
24/04:00pm 21.0 18.1 10.9 52 5.5 SE 17 26 9 14 1027.5 - 0.0
24/03:30pm 21.2 18.4 11.2 53 5.5 SE 17 30 9 16 1027.0 - 0.0
24/03:00pm 21.5 18.3 11.1 51 5.7 SE 19 30 10 16 1026.8 1026.7 0.0
24/02:30pm 22.0 18.6 11.3 50 5.9 SE 20 32 11 17 1026.8 - 0.0
24/02:00pm 22.1 18.6 11.0 49 6.1 SE 20 32 11 17 1026.9 - 0.0
24/01:30pm 22.4 19.4 11.8 51 6.0 SE 19 33 10 18 1026.8 - 0.0
24/01:00pm 22.2 19.0 11.4 50 6.0 ESE 19 32 10 17 1026.7 - 0.0
24/12:30pm 22.8 19.0 9.9 44 7.0 ESE 20 35 11 19 1026.7 - 0.0
24/12:00pm 22.8 19.7 10.3 45 6.8 SE 17 28 9 15 1027.3 1027.2 0.0
24/11:30am 22.1 19.6 11.0 49 6.1 S 15 26 8 14 1027.9 - 0.0
24/11:00am 21.2 18.2 10.7 51 5.7 SSE 17 28 9 15 1028.0 - 0.0
24/10:30am 21.0 17.7 10.9 52 5.5 S 19 26 10 14 1028.3 - 0.0
24/10:00am 19.8 16.7 10.3 54 5.1 S 17 22 9 12 1028.3 - 0.0
24/09:30am 19.2 15.6 10.4 56 4.7 SSW 20 28 11 15 1028.8 - 0.0
24/09:00am 17.9 14.7 10.1 60 4.1 S 17 24 9 13 1028.2 1028.1 0.0
24/08:30am 16.8 12.8 10.3 65 3.4 SSW 22 32 12 17 1028.2 - 0.0
24/08:00am 15.8 11.8 10.5 71 2.8 SSW 22 30 12 16 1028.2 - 0.0
24/07:30am 14.8 11.3 10.8 77 2.1 SSW 20 28 11 15 1028.0 - 0.0
24/07:00am 13.3 10.5 11.2 87 1.1 SW 17 24 9 13 1027.8 - 0.0
24/06:30am 11.9 9.2 10.3 90 0.8 SSW 15 19 8 10 1026.7 - 0.0
24/06:00am 12.4 9.8 10.7 89 0.9 SSW 15 19 8 10 1026.6 1026.5 0.0
24/05:30am 13.7 11.2 11.2 85 1.3 SSW 15 19 8 10 1026.2 - 0.0
24/05:00am 13.9 11.9 11.4 85 1.3 SSW 13 19 7 10 1026.0 - 0.0
24/04:30am 13.4 11.4 11.5 88 1.0 SSW 13 17 7 9 1025.9 - 0.0
24/04:00am 13.7 11.4 11.6 87 1.1 SSW 15 19 8 10 1025.7 - 0.0
24/03:30am 14.1 11.8 11.9 86 1.2 SW 15 17 8 9 1025.7 - 0.0
24/03:00am 14.5 12.6 11.7 83 1.5 SSW 13 17 7 9 1025.8 1025.7 0.0
24/02:30am 13.9 11.9 11.6 86 1.2 SSW 13 19 7 10 1026.0 - 0.0
24/02:00am 13.7 12.3 11.0 84 1.4 SSW 9 11 5 6 1026.0 - 0.0
24/01:30am 15.0 13.2 11.0 77 2.1 S 11 17 6 9 1025.9 - 0.0
24/01:00am 15.8 13.5 10.5 71 2.8 S 13 17 7 9 1025.8 - 0.0
24/12:30am 15.7 13.8 10.6 71 2.7 S 11 17 6 9 1025.8 - 0.0
24/12:00am 14.8 13.2 10.2 74 2.4 S 9 15 5 8 1025.7 1025.6 0.0
 
Date/Time
EST
Temp
°C
App
Temp
°C
Dew
Point
Rel
Hum
%
Delta-T
°C
Wind Press
QNH
hPa
Press
MSL
hPa
Rain
since 9 am
mm
Dir
 
Spd
km/h
Gust
km/h
Spd
kts
Gust
kts
23/11:30pm 15.0 12.6 10.0 72 2.6 S 13 17 7 9 1025.6 - 0.0
23/11:00pm 13.4 10.6 9.9 79 1.8 SSW 15 17 8 9 1025.7 - 0.0
23/10:30pm 13.2 10.3 9.7 79 1.8 SSW 15 20 8 11 1025.7 - 0.0
23/10:00pm 13.4 10.8 9.2 76 2.1 SSW 13 17 7 9 1025.6 - 0.0
23/09:30pm 15.6 12.8 8.7 63 3.5 SSW 13 19 7 10 1025.5 - 0.0
23/09:00pm 14.8 12.0 8.4 65 3.2 SSW 13 17 7 9 1025.7 1025.6 0.0
23/08:30pm 16.0 13.5 8.3 60 3.9 SSW 11 15 6 8 1025.8 - 0.0
23/08:00pm 16.7 13.8 8.2 57 4.3 SSW 13 15 7 8 1025.7 - 0.0
23/07:30pm 17.4 14.0 7.6 52 4.9 S 15 20 8 11 1025.6 - 0.0
23/07:00pm 18.0 15.0 7.9 51 5.1 S 13 24 7 13 1025.4 - 0.0
23/06:30pm 17.4 15.1 9.1 58 4.3 S 11 17 6 9 1025.0 - 0.0
23/06:00pm 18.0 15.4 9.4 57 4.5 S 13 24 7 13 1024.6 1024.5 0.0
23/05:30pm 19.1 16.9 9.2 52 5.2 S 11 17 6 9 1024.6 - 0.0
23/05:00pm 19.1 16.6 9.6 54 5.0 S 13 17 7 9 1024.3 - 0.0
23/04:30pm 19.3 16.7 9.2 52 5.3 S 13 20 7 11 1023.8 - 0.0
23/04:00pm 20.1 16.0 8.8 48 5.9 SSE 20 33 11 18 1023.3 - 0.0
23/03:30pm 20.3 16.3 9.1 48 5.9 SSE 20 37 11 20 1023.1 - 0.0
23/03:00pm 21.2 17.0 7.3 40 7.1 SSE 19 33 10 18 1022.9 1022.9 0.0
23/02:30pm 21.3 16.1 7.2 40 7.2 S 24 41 13 22 1022.9 - 0.0
23/02:00pm 21.6 17.3 7.9 41 7.1 S 20 33 11 18 1022.7 - 0.0
23/01:30pm 21.3 16.2 7.5 41 7.1 SSE 24 43 13 23 1022.6 - 0.0
23/01:00pm 21.4 17.1 7.9 41 7.0 SSE 20 35 11 19 1022.7 - 0.0
23/12:30pm 21.8 17.2 8.0 41 7.2 S 22 35 12 19 1022.7 - 0.0
23/12:00pm 21.3 15.9 6.4 38 7.5 S 24 44 13 24 1023.0 1023.0 0.0
23/11:30am 21.8 16.7 7.7 40 7.3 S 24 33 13 18 1023.3 - 0.0
23/11:00am 21.3 16.5 7.2 40 7.2 SSE 22 35 12 19 1023.6 - 0.0
23/10:30am 20.6 16.7 8.5 45 6.3 S 19 28 10 15 1023.7 - 0.0
23/10:00am 20.0 16.0 8.9 48 5.8 S 20 30 11 16 1023.3 - 0.0
23/09:30am 18.7 14.5 8.4 51 5.3 SSW 20 30 11 16 1023.2 - 0.0
23/09:00am 18.3 14.2 8.6 53 5.0 SSW 20 30 11 16 1022.9 1022.9 0.0
23/08:30am 17.4 12.8 8.1 54 4.7 SSW 22 30 12 16 1022.7 - 0.0
23/08:00am 16.7 12.5 8.4 58 4.2 SSW 20 30 11 16 1022.1 - 0.0
23/07:30am 15.6 12.1 8.9 64 3.4 SSW 17 24 9 13 1022.0 - 0.0
23/07:00am 14.7 11.3 9.0 68 2.9 SSW 17 22 9 12 1021.5 - 0.0
23/06:30am 14.7 11.1 8.5 66 3.1 SSW 17 20 9 11 1021.1 - 0.0
23/06:00am 13.9 10.3 8.5 70 2.7 SSW 17 22 9 12 1020.8 1020.8 0.0
23/05:30am 13.8 10.6 8.6 71 2.6 SSW 15 20 8 11 1020.3 - 0.0
23/05:00am 14.0 10.5 8.8 71 2.6 SSW 17 20 9 11 1020.0 - 0.0
23/04:30am 13.7 11.0 8.9 73 2.4 SSW 13 19 7 10 1019.7 - 0.0
23/04:00am 13.7 9.9 8.9 73 2.4 SSW 19 22 10 12 1019.6 - 0.0
23/03:30am 13.6 10.2 9.0 74 2.3 SSW 17 20 9 11 1019.6 - 0.0
23/03:00am 14.5 10.6 8.8 68 2.9 SSW 19 26 10 14 1019.6 1019.6 0.0
23/02:30am 14.8 11.3 8.9 68 3.0 SSW 17 24 9 13 1019.5 - 0.0
23/02:00am 15.1 11.2 8.8 66 3.2 SSW 19 26 10 14 1019.5 - 0.0
23/01:30am 14.6 11.5 8.9 68 2.9 SW 15 19 8 10 1019.5 - 0.0
23/01:00am 14.8 11.4 9.1 68 2.9 SW 17 19 9 10 1019.5 - 0.0
23/12:30am 14.8 11.3 8.9 68 3.0 WSW 17 20 9 11 1019.5 - 0.0
23/12:00am 14.3 11.5 8.7 69 2.8 WSW 13 19 7 10 1019.4 1019.4 0.0
 
Date/Time
EST
Temp
°C
App
Temp
°C
Dew
Point
Rel
Hum
%
Delta-T
°C
Wind Press
QNH
hPa
Press
MSL
hPa
Rain
since 9 am
mm
Dir
 
Spd
km/h
Gust
km/h
Spd
kts
Gust
kts
22/11:30pm 13.4 10.7 9.0 75 2.2 WSW 13 19 7 10 1019.5 - 0.0
22/11:00pm 13.6 10.4 8.6 72 2.5 SW 15 19 8 10 1019.3 - 0.0
22/10:30pm 13.1 9.9 8.5 73 2.3 WSW 15 19 8 10 1019.3 - 0.0
22/10:00pm 14.0 10.8 8.4 69 2.8 WSW 15 19 8 10 1019.4 - 0.0

Other Formats:

Comma delimited format used in spreadsheet applications
http://www.bom.gov.au/fwo/IDQ60801/IDQ60801.94578.axf

JavaScript Object Notation format (JSON) in row-major order
http://www.bom.gov.au/fwo/IDQ60801/IDQ60801.94578.json